createdAt,value
2024-04-10T00:03:27.494Z,16.70
2024-04-10T00:06:17.054Z,16.67
2024-04-10T00:09:06.830Z,16.64
2024-04-10T00:11:56.365Z,16.63
2024-04-10T00:14:45.613Z,16.63
2024-04-10T00:17:35.571Z,16.63
2024-04-10T00:20:25.198Z,16.65
2024-04-10T00:23:14.592Z,16.70
2024-04-10T00:26:05.387Z,16.74
2024-04-10T00:28:55.135Z,16.76
2024-04-10T00:31:46.586Z,16.79
2024-04-10T00:34:36.708Z,16.80
2024-04-10T00:37:25.693Z,16.80
2024-04-10T00:40:15.575Z,16.81
2024-04-10T00:43:05.050Z,16.82
2024-04-10T00:45:56.318Z,16.85
2024-04-10T00:48:46.548Z,16.89
2024-04-10T00:51:36.320Z,16.92
2024-04-10T00:54:26.661Z,16.96
2024-04-10T00:57:16.297Z,16.97
2024-04-10T01:00:06.198Z,16.98
2024-04-10T01:02:55.159Z,16.99
2024-04-10T01:05:44.973Z,16.97
2024-04-10T01:08:35.468Z,16.93
2024-04-10T01:11:25.368Z,16.80
2024-04-10T01:14:15.106Z,16.63
2024-04-10T01:17:05.458Z,16.50
2024-04-10T01:19:54.878Z,16.33
2024-04-10T01:22:44.727Z,16.16
2024-04-10T01:25:34.609Z,16.02
2024-04-10T01:28:24.083Z,15.91
2024-04-10T01:31:13.966Z,15.83
2024-04-10T01:34:04.062Z,15.75
2024-04-10T01:36:53.828Z,15.67
2024-04-10T01:39:43.809Z,15.63
2024-04-10T01:42:33.798Z,15.58
2024-04-10T01:45:23.476Z,15.53
2024-04-10T01:48:13.508Z,15.49
2024-04-10T01:51:03.959Z,15.48
2024-04-10T01:53:53.332Z,15.44
2024-04-10T01:56:43.050Z,15.38
2024-04-10T01:59:32.949Z,15.35
2024-04-10T02:02:22.954Z,15.34
2024-04-10T02:05:12.931Z,15.33
2024-04-10T02:08:02.591Z,15.32
2024-04-10T02:10:57.226Z,15.30
2024-04-10T02:13:47.636Z,15.25
2024-04-10T02:16:37.223Z,15.20
2024-04-10T02:19:27.690Z,15.15
2024-04-10T02:22:17.263Z,15.10
2024-04-10T02:25:07.046Z,15.05
2024-04-10T02:27:56.522Z,15.00
2024-04-10T02:30:46.402Z,14.93
2024-04-10T02:33:38.838Z,14.86
2024-04-10T02:36:28.935Z,14.81
2024-04-10T02:39:18.512Z,14.73
2024-04-10T02:42:08.192Z,14.65
2024-04-10T02:44:57.762Z,14.59
2024-04-10T02:47:47.554Z,14.53
2024-04-10T02:50:36.962Z,14.47
2024-04-10T02:53:26.514Z,14.40
2024-04-10T02:56:16.224Z,14.35
2024-04-10T02:59:06.172Z,14.31
2024-04-10T03:01:55.774Z,14.26
2024-04-10T03:04:45.158Z,14.22
2024-04-10T03:07:36.552Z,14.19
2024-04-10T03:10:26.462Z,14.18
2024-04-10T03:13:16.301Z,14.13
2024-04-10T03:16:08.457Z,14.05
2024-04-10T03:18:58.522Z,13.97
2024-04-10T03:21:48.389Z,13.93
2024-04-10T03:24:38.989Z,13.86
2024-04-10T03:27:29.077Z,13.78
2024-04-10T03:30:19.056Z,13.70
2024-04-10T03:33:08.812Z,13.63
2024-04-10T03:35:59.541Z,13.57
2024-04-10T03:38:53.291Z,13.52
2024-04-10T03:41:43.624Z,13.42
2024-04-10T03:44:34.033Z,13.32
2024-04-10T03:47:24.036Z,13.17
2024-04-10T03:50:19.516Z,13.01
2024-04-10T03:53:10.310Z,12.83
2024-04-10T03:56:00.292Z,12.67
2024-04-10T03:58:50.810Z,12.56
2024-04-10T04:01:42.393Z,12.47
2024-04-10T04:04:31.963Z,12.42
2024-04-10T04:07:22.060Z,12.39
2024-04-10T04:10:11.540Z,12.35
2024-04-10T04:13:01.119Z,12.28
2024-04-10T04:15:51.395Z,12.22
2024-04-10T04:18:42.032Z,12.15
2024-04-10T04:21:33.023Z,12.07
2024-04-10T04:24:24.343Z,12.02
2024-04-10T04:27:17.426Z,11.98
2024-04-10T04:30:07.319Z,11.91
2024-04-10T04:32:57.069Z,11.85
2024-04-10T04:35:47.748Z,11.77
2024-04-10T04:38:38.099Z,11.72
2024-04-10T04:41:29.688Z,11.70
2024-04-10T04:44:20.003Z,11.66
2024-04-10T04:47:10.927Z,11.64
2024-04-10T04:50:01.505Z,11.64
2024-04-10T04:52:51.818Z,11.60
2024-04-10T04:55:41.338Z,11.55
2024-04-10T04:58:32.295Z,11.50
2024-04-10T05:01:23.011Z,11.43
2024-04-10T05:04:31.752Z,11.41
2024-04-10T05:07:21.871Z,11.39
2024-04-10T05:10:12.141Z,11.36
2024-04-10T05:13:02.009Z,11.35
2024-04-10T05:15:56.754Z,11.34
2024-04-10T05:18:46.690Z,11.33
2024-04-10T05:21:36.388Z,11.33
2024-04-10T05:24:26.701Z,11.37
2024-04-10T05:27:25.881Z,11.40
2024-04-10T05:30:17.937Z,11.40
2024-04-10T05:33:09.888Z,11.38
2024-04-10T05:36:00.464Z,11.34
2024-04-10T05:38:51.650Z,11.34
2024-04-10T05:41:41.524Z,11.40
2024-04-10T05:44:32.143Z,11.42
2024-04-10T05:47:22.221Z,11.42
2024-04-10T05:50:12.286Z,11.41
2024-04-10T05:53:04.823Z,11.38
2024-04-10T05:55:54.792Z,11.39
2024-04-10T05:58:45.040Z,11.45
2024-04-10T06:01:34.394Z,11.49
2024-04-10T06:04:24.498Z,11.50
2024-04-10T06:07:14.554Z,11.48
2024-04-10T06:10:06.288Z,11.41
2024-04-10T06:12:56.182Z,11.31
2024-04-10T06:15:45.946Z,11.28
2024-04-10T06:18:36.033Z,11.27
2024-04-10T06:21:26.656Z,11.24
2024-04-10T06:24:20.009Z,11.23
2024-04-10T06:27:09.799Z,11.19
2024-04-10T06:29:59.659Z,11.16
2024-04-10T06:32:49.504Z,11.12
2024-04-10T06:35:39.568Z,11.13
2024-04-10T06:38:29.796Z,11.15
2024-04-10T06:41:19.564Z,11.17
2024-04-10T06:44:09.326Z,11.18
2024-04-10T06:47:00.280Z,11.16
2024-04-10T06:49:53.108Z,11.16
2024-04-10T06:52:42.715Z,11.19
2024-04-10T06:55:32.808Z,11.21
2024-04-10T06:58:23.613Z,11.23
2024-04-10T07:01:13.271Z,11.22
2024-04-10T07:04:03.084Z,11.21
2024-04-10T07:06:52.889Z,11.21
2024-04-10T07:09:43.142Z,11.20
2024-04-10T07:12:34.325Z,11.23
2024-04-10T07:15:23.738Z,11.27
2024-04-10T07:18:16.097Z,11.27
2024-04-10T07:21:06.707Z,11.23
2024-04-10T07:24:00.485Z,11.18
2024-04-10T07:26:51.711Z,11.16
2024-04-10T07:29:44.162Z,11.16
2024-04-10T07:32:34.638Z,11.19
2024-04-10T07:35:24.424Z,11.24
2024-04-10T07:38:14.562Z,11.28
2024-04-10T07:41:04.819Z,11.28
2024-04-10T07:43:55.000Z,11.22
2024-04-10T07:46:45.527Z,11.18
2024-04-10T07:49:35.448Z,11.19
2024-04-10T07:52:24.994Z,11.23
2024-04-10T07:55:15.186Z,11.27
2024-04-10T07:58:05.826Z,11.29
2024-04-10T08:00:58.594Z,11.25
2024-04-10T08:03:49.540Z,11.21
2024-04-10T08:06:39.758Z,11.21
2024-04-10T08:09:29.500Z,11.21
2024-04-10T08:12:19.615Z,11.23
2024-04-10T08:15:13.364Z,11.20
2024-04-10T08:18:03.262Z,11.19
2024-04-10T08:21:02.043Z,11.19
2024-04-10T08:23:51.371Z,11.21
2024-04-10T08:26:42.635Z,11.30
2024-04-10T08:29:35.501Z,11.37
2024-04-10T08:32:26.446Z,11.35
2024-04-10T08:35:16.554Z,11.34
2024-04-10T08:38:06.456Z,11.35
2024-04-10T08:40:56.864Z,11.36
2024-04-10T08:43:47.153Z,11.33
2024-04-10T08:46:38.936Z,11.29
2024-04-10T08:49:29.161Z,11.23
2024-04-10T08:52:18.631Z,11.20
2024-04-10T08:55:09.700Z,11.21
2024-04-10T08:57:59.131Z,11.19
2024-04-10T09:00:49.101Z,11.18
2024-04-10T09:03:39.645Z,11.19
2024-04-10T09:06:30.203Z,11.21
2024-04-10T09:09:26.040Z,11.27
2024-04-10T09:12:25.321Z,11.37
2024-04-10T09:15:19.287Z,11.46
2024-04-10T09:18:09.688Z,11.58
2024-04-10T09:21:09.679Z,11.65
2024-04-10T09:24:00.404Z,11.69
2024-04-10T09:26:50.986Z,11.79
2024-04-10T09:29:41.420Z,11.91
2024-04-10T09:32:32.985Z,11.95
2024-04-10T09:35:23.713Z,11.99
2024-04-10T09:38:13.573Z,12.04
2024-04-10T09:41:04.466Z,12.07
2024-04-10T09:43:55.210Z,12.13
2024-04-10T09:46:45.123Z,12.24
2024-04-10T09:49:44.094Z,12.34
2024-04-10T09:52:33.769Z,12.44
2024-04-10T09:55:23.549Z,12.47
2024-04-10T09:58:14.805Z,12.51
2024-04-10T10:01:04.868Z,12.48
2024-04-10T10:03:58.416Z,12.44
2024-04-10T10:06:48.500Z,12.45
2024-04-10T10:09:39.020Z,12.40
2024-04-10T10:12:29.113Z,12.36
2024-04-10T10:15:21.913Z,12.37
2024-04-10T10:18:18.240Z,12.45
2024-04-10T10:21:11.601Z,12.50
2024-04-10T10:24:05.912Z,12.52
2024-04-10T10:27:02.398Z,12.57
2024-04-10T10:30:05.702Z,12.50
2024-04-10T10:33:02.675Z,12.41
2024-04-10T10:35:52.927Z,12.35
2024-04-10T10:38:43.253Z,12.34
2024-04-10T10:41:33.145Z,12.40
2024-04-10T10:44:23.519Z,12.42
2024-04-10T10:47:13.750Z,12.42
2024-04-10T10:50:05.245Z,12.42
2024-04-10T10:52:55.457Z,12.42
2024-04-10T10:55:55.070Z,12.42
2024-04-10T10:58:44.755Z,12.42
2024-04-10T11:04:26.418Z,12.35
2024-04-10T11:07:17.377Z,12.33
2024-04-10T11:10:08.157Z,12.35
2024-04-10T11:13:09.711Z,12.39
2024-04-10T11:15:59.748Z,12.38
2024-04-10T11:18:50.082Z,12.39
2024-04-10T11:21:40.997Z,12.43
2024-04-10T11:24:31.606Z,12.51
2024-04-10T11:27:21.075Z,12.56
2024-04-10T11:30:11.301Z,12.57
2024-04-10T11:33:01.273Z,12.60
2024-04-10T11:35:55.500Z,12.57
2024-04-10T11:38:45.421Z,12.59
2024-04-10T11:41:35.680Z,12.66
2024-04-10T11:44:27.512Z,12.74
2024-04-10T11:47:17.732Z,12.79
2024-04-10T11:50:12.615Z,12.83
2024-04-10T11:53:02.935Z,12.80
2024-04-10T11:55:54.359Z,12.76
2024-04-10T11:58:44.328Z,12.78
2024-04-10T12:01:34.043Z,12.80
2024-04-10T12:04:24.217Z,12.89
2024-04-10T12:07:14.170Z,12.97
2024-04-10T12:10:05.986Z,13.04
2024-04-10T12:12:55.808Z,13.02
2024-04-10T12:15:48.641Z,13.01
2024-04-10T12:18:38.333Z,13.03
2024-04-10T12:21:28.503Z,13.05
2024-04-10T12:24:18.268Z,13.04
2024-04-10T12:27:08.216Z,13.04
2024-04-10T12:29:58.240Z,13.07
2024-04-10T12:32:48.686Z,13.07
2024-04-10T12:35:57.244Z,13.04
2024-04-10T12:38:47.916Z,13.00
2024-04-10T12:41:38.192Z,13.00
2024-04-10T12:44:28.491Z,13.00
2024-04-10T12:47:18.531Z,13.04
2024-04-10T12:50:09.494Z,13.09
2024-04-10T12:52:59.424Z,13.09
2024-04-10T12:55:52.791Z,13.06
2024-04-10T12:58:42.879Z,13.05
2024-04-10T13:01:33.412Z,13.01
2024-04-10T13:04:23.832Z,12.93
2024-04-10T13:07:14.673Z,12.83
2024-04-10T13:10:04.464Z,12.78
2024-04-10T13:12:54.873Z,12.71
2024-04-10T13:15:45.530Z,12.66
2024-04-10T13:18:36.694Z,12.64
2024-04-10T13:21:27.255Z,12.68
2024-04-10T13:24:17.331Z,12.75
2024-04-10T13:27:11.337Z,12.74
2024-04-10T13:30:01.399Z,12.65
2024-04-10T13:32:51.774Z,12.56
2024-04-10T13:35:41.953Z,12.47
2024-04-10T13:38:32.212Z,12.46
2024-04-10T13:41:22.863Z,12.51
2024-04-10T13:44:12.967Z,12.59
2024-04-10T13:47:02.434Z,12.66
2024-04-10T13:49:52.657Z,12.68
2024-04-10T13:52:43.430Z,12.66
2024-04-10T13:55:33.410Z,12.63
2024-04-10T13:58:23.329Z,12.56
2024-04-10T14:01:19.494Z,12.48
2024-04-10T14:04:12.349Z,12.45
2024-04-10T14:07:02.074Z,12.40
2024-04-10T14:09:51.848Z,12.35
2024-04-10T14:12:41.413Z,12.30
2024-04-10T14:15:32.326Z,12.32
2024-04-10T14:18:22.533Z,12.38
2024-04-10T14:21:12.795Z,12.46
2024-04-10T14:24:05.842Z,12.54
2024-04-10T14:26:56.661Z,12.58
2024-04-10T14:29:54.467Z,12.60
2024-04-10T14:32:44.211Z,12.60
2024-04-10T14:35:34.457Z,12.63
2024-04-10T14:38:24.743Z,12.67
2024-04-10T14:41:14.495Z,12.71
2024-04-10T14:44:04.558Z,12.71
2024-04-10T14:46:54.453Z,12.77
2024-04-10T14:49:46.122Z,12.85
2024-04-10T14:52:38.517Z,12.93
2024-04-10T14:55:28.693Z,12.98
2024-04-10T14:58:18.369Z,13.03
2024-04-10T15:01:12.037Z,13.07
2024-04-10T15:04:02.313Z,13.13
2024-04-10T15:06:52.328Z,13.21
2024-04-10T15:09:42.299Z,13.34
2024-04-10T15:12:32.471Z,13.46
2024-04-10T15:15:22.068Z,13.51
2024-04-10T15:18:12.571Z,13.44
2024-04-10T15:21:03.139Z,13.32
2024-04-10T15:23:53.507Z,13.23
2024-04-10T15:26:43.804Z,13.13
2024-04-10T15:29:33.457Z,13.07
2024-04-10T15:32:23.306Z,12.98
2024-04-10T15:35:13.496Z,12.86
2024-04-10T15:38:04.004Z,12.72
2024-04-10T15:40:56.628Z,12.58
2024-04-10T15:43:47.554Z,12.49
2024-04-10T15:46:37.540Z,12.43
2024-04-10T15:49:29.568Z,12.39
2024-04-10T15:52:38.114Z,12.38
2024-04-10T15:55:30.308Z,12.34
2024-04-10T15:58:20.104Z,12.30
2024-04-10T16:01:11.297Z,12.30
2024-04-10T16:04:01.179Z,12.32
2024-04-10T16:06:51.480Z,12.31
2024-04-10T16:09:41.769Z,12.32
2024-04-10T16:12:31.582Z,12.32
2024-04-10T16:15:25.016Z,12.28
2024-04-10T16:18:16.542Z,12.22
2024-04-10T16:21:06.577Z,12.17
2024-04-10T16:23:56.355Z,12.15
2024-04-10T16:26:46.248Z,12.13
2024-04-10T16:29:36.419Z,12.11
2024-04-10T16:32:26.394Z,12.07
2024-04-10T16:35:16.913Z,12.05
2024-04-10T16:38:06.944Z,12.02
2024-04-10T16:41:00.629Z,12.00
2024-04-10T16:43:50.393Z,11.98
2024-04-10T16:46:40.840Z,11.96
2024-04-10T16:49:31.176Z,11.94
2024-04-10T16:52:20.969Z,11.92
2024-04-10T16:55:10.847Z,11.91
2024-04-10T16:58:01.033Z,11.92
2024-04-10T17:00:50.561Z,11.94
2024-04-10T17:03:41.465Z,11.98
2024-04-10T17:06:31.804Z,12.01
2024-04-10T17:09:22.168Z,12.00
2024-04-10T17:12:13.644Z,12.00
2024-04-10T17:15:04.222Z,12.00
2024-04-10T17:18:12.645Z,11.99
2024-04-10T17:21:21.870Z,11.97
2024-04-10T17:24:12.171Z,11.93
2024-04-10T17:27:02.265Z,11.88
2024-04-10T17:29:53.528Z,11.83
2024-04-10T17:32:43.531Z,11.78
2024-04-10T17:35:33.309Z,11.73
2024-04-10T17:38:23.241Z,11.69
2024-04-10T17:41:13.096Z,11.69
2024-04-10T17:44:02.890Z,11.70
2024-04-10T17:46:54.699Z,11.73
2024-04-10T17:49:44.481Z,11.75
2024-04-10T17:52:34.363Z,11.77
2024-04-10T17:55:24.338Z,11.77
2024-04-10T17:58:14.018Z,11.76
2024-04-10T18:01:05.128Z,11.74
2024-04-10T18:03:58.954Z,11.72
2024-04-10T18:06:49.409Z,11.69
2024-04-10T18:09:39.581Z,11.64
2024-04-10T18:12:29.947Z,11.58
2024-04-10T18:15:20.061Z,11.53
2024-04-10T18:18:10.964Z,11.49
2024-04-10T18:21:02.322Z,11.47
2024-04-10T18:23:52.761Z,11.48
2024-04-10T18:26:43.425Z,11.48
2024-04-10T18:29:33.619Z,11.44
2024-04-10T18:32:27.372Z,11.41
2024-04-10T18:35:17.489Z,11.39
2024-04-10T18:38:08.638Z,11.37
2024-04-10T18:41:06.514Z,11.34
2024-04-10T18:43:56.815Z,11.33
2024-04-10T18:46:46.695Z,11.33
2024-04-10T18:49:36.869Z,11.33
2024-04-10T18:52:27.287Z,11.31
2024-04-10T18:55:16.656Z,11.28
2024-04-10T18:58:06.638Z,11.26
2024-04-10T19:00:58.926Z,11.23
2024-04-10T19:03:48.851Z,11.20
2024-04-10T19:06:38.838Z,11.17
2024-04-10T19:09:29.655Z,11.16
2024-04-10T19:12:18.957Z,11.16
2024-04-10T19:15:10.779Z,11.17
2024-04-10T19:18:00.709Z,11.18
2024-04-10T19:20:53.615Z,11.21
2024-04-10T19:23:44.243Z,11.24
2024-04-10T19:26:34.102Z,11.26
2024-04-10T19:29:23.533Z,11.26
2024-04-10T19:32:13.506Z,11.26
2024-04-10T19:35:03.483Z,11.25
2024-04-10T19:37:54.280Z,11.22
2024-04-10T19:40:44.497Z,11.20
2024-04-10T19:43:34.073Z,11.17
2024-04-10T19:46:23.938Z,11.15
2024-04-10T19:49:14.028Z,11.13
2024-04-10T19:52:03.925Z,11.14
2024-04-10T19:54:53.389Z,11.17
2024-04-10T19:57:42.854Z,11.21
2024-04-10T20:00:32.337Z,11.26
2024-04-10T20:03:22.405Z,11.28
2024-04-10T20:06:13.407Z,11.29
2024-04-10T20:09:06.722Z,11.29
2024-04-10T20:11:57.106Z,11.29
2024-04-10T20:14:47.499Z,11.28
2024-04-10T20:17:36.935Z,11.24
2024-04-10T20:20:26.873Z,11.18
2024-04-10T20:23:16.634Z,11.14
2024-04-10T20:26:06.830Z,11.12
2024-04-10T20:28:56.473Z,11.11
2024-04-10T20:31:45.669Z,11.14
2024-04-10T20:34:35.314Z,11.17
2024-04-10T20:37:25.004Z,11.16
2024-04-10T20:40:16.436Z,11.17
2024-04-10T20:43:09.589Z,11.16
2024-04-10T20:46:02.831Z,11.13
2024-04-10T20:48:52.567Z,11.10
2024-04-10T20:51:42.696Z,11.09
2024-04-10T20:54:32.368Z,11.10
2024-04-10T20:57:21.855Z,11.11
2024-04-10T21:00:14.667Z,11.13
2024-04-10T21:03:04.907Z,11.16
2024-04-10T21:05:55.389Z,11.19
2024-04-10T21:09:06.152Z,11.19
2024-04-10T21:12:15.319Z,11.18
2024-04-10T21:15:23.518Z,11.17
2024-04-10T21:18:32.384Z,11.12
2024-04-10T21:21:40.963Z,11.06
2024-04-10T21:24:49.267Z,11.02
2024-04-10T21:27:57.888Z,11.00
2024-04-10T21:31:07.120Z,11.01
2024-04-10T21:34:15.464Z,10.99
2024-04-10T21:37:23.644Z,10.98
2024-04-10T21:40:31.958Z,10.98
2024-04-10T21:43:40.578Z,10.98
2024-04-10T21:46:49.193Z,10.97
2024-04-10T21:49:57.929Z,10.95
2024-04-10T21:53:06.248Z,10.93
2024-04-10T21:56:14.656Z,10.93
2024-04-10T21:59:23.597Z,10.93
2024-04-10T22:02:32.087Z,10.98
2024-04-10T22:05:40.741Z,11.01
2024-04-10T22:08:49.778Z,11.06
2024-04-10T22:11:40.684Z,11.10
2024-04-10T22:14:31.217Z,11.11
2024-04-10T22:17:40.023Z,11.09
2024-04-10T22:20:48.923Z,11.07
2024-04-10T22:23:57.352Z,11.03
2024-04-10T22:26:47.249Z,10.99
2024-04-10T22:29:36.850Z,10.95
2024-04-10T22:32:27.188Z,10.90
2024-04-10T22:35:17.911Z,10.85
2024-04-10T22:38:07.455Z,10.82
2024-04-10T22:40:58.163Z,10.84
2024-04-10T22:43:47.833Z,10.89
2024-04-10T22:46:38.835Z,10.94
2024-04-10T22:49:28.421Z,10.94
2024-04-10T22:52:18.813Z,10.92
2024-04-10T22:55:08.690Z,10.90
2024-04-10T22:57:58.372Z,10.87
2024-04-10T23:00:49.737Z,10.85
2024-04-10T23:03:40.067Z,10.82
2024-04-10T23:07:07.288Z,10.82
2024-04-10T23:09:39.988Z,10.85
2024-04-10T23:12:29.443Z,10.88
2024-04-10T23:15:19.487Z,10.93
2024-04-10T23:18:17.440Z,10.94
2024-04-10T23:21:11.439Z,10.95
2024-04-10T23:24:01.146Z,10.95
2024-04-10T23:26:53.900Z,10.91
2024-04-10T23:29:43.466Z,10.89
2024-04-10T23:32:34.424Z,10.87
2024-04-10T23:35:24.874Z,10.82
2024-04-10T23:38:14.910Z,10.77
2024-04-10T23:41:04.709Z,10.71
2024-04-10T23:43:55.099Z,10.70
2024-04-10T23:46:44.671Z,10.71
2024-04-10T23:49:33.926Z,10.72
2024-04-10T23:52:23.815Z,10.74
2024-04-10T23:55:16.679Z,10.78
2024-04-10T23:58:10.453Z,10.81
